createdAt,value
2019-01-06T00:01:26.177Z,9.17
2019-01-06T00:04:14.459Z,12.20
2019-01-06T00:07:05.664Z,8.87
2019-01-06T00:09:54.776Z,10.10
2019-01-06T00:15:37.352Z,11.33
2019-01-06T00:18:32.015Z,10.00
2019-01-06T00:21:20.432Z,15.20
2019-01-06T00:24:07.246Z,10.00
2019-01-06T00:26:57.015Z,9.97
2019-01-06T00:29:54.592Z,10.13
2019-01-06T00:32:42.632Z,11.50
2019-01-06T00:35:31.055Z,10.47
2019-01-06T00:38:22.259Z,9.80
2019-01-06T00:41:16.551Z,8.30
2019-01-06T00:44:02.048Z,10.63
2019-01-06T00:46:53.372Z,9.80
2019-01-06T00:49:50.763Z,10.27
2019-01-06T00:52:37.611Z,8.83
2019-01-06T00:55:37.949Z,9.07
2019-01-06T00:58:29.222Z,7.70
2019-01-06T01:01:29.655Z,9.67
2019-01-06T01:04:37.265Z,10.93
2019-01-06T01:07:37.601Z,7.20
2019-01-06T01:10:45.855Z,8.10
2019-01-06T01:13:48.716Z,10.50
2019-01-06T01:16:46.050Z,8.63
2019-01-06T01:19:41.723Z,10.33
2019-01-06T01:22:33.126Z,13.67
2019-01-06T01:25:24.260Z,7.93
2019-01-06T01:28:27.695Z,8.73
2019-01-06T01:31:22.059Z,6.67
2019-01-06T01:34:13.303Z,7.30
2019-01-06T01:37:19.951Z,11.10
2019-01-06T01:40:17.317Z,11.07
2019-01-06T01:43:05.079Z,10.00
2019-01-06T01:45:52.275Z,9.23
2019-01-06T01:48:36.999Z,7.40
2019-01-06T01:51:31.860Z,9.57
2019-01-06T01:54:32.436Z,10.70
2019-01-06T01:57:31.201Z,13.20
2019-01-06T02:00:31.768Z,9.07
2019-01-06T02:03:20.747Z,8.97
2019-01-06T02:06:27.356Z,9.77
2019-01-06T02:09:15.723Z,11.47
2019-01-06T02:11:56.384Z,16.37
2019-01-06T02:14:39.199Z,10.93
2019-01-06T02:17:36.638Z,11.90
2019-01-06T02:20:28.172Z,10.87
2019-01-06T02:23:37.146Z,8.63
2019-01-06T02:26:35.000Z,9.20
2019-01-06T02:29:22.347Z,14.10
2019-01-06T02:32:33.947Z,12.07
2019-01-06T02:35:18.180Z,10.87
2019-01-06T02:38:05.183Z,10.23
2019-01-06T02:40:53.964Z,7.83
2019-01-06T02:43:51.586Z,10.30
2019-01-06T02:46:46.023Z,10.10
2019-01-06T02:49:45.887Z,9.97
2019-01-06T02:52:36.294Z,9.77
2019-01-06T02:55:30.852Z,11.23
2019-01-06T02:58:21.132Z,10.67
2019-01-06T03:01:18.519Z,11.90
2019-01-06T03:04:16.375Z,13.40
2019-01-06T03:07:06.018Z,9.50
2019-01-06T03:10:09.655Z,9.33
2019-01-06T03:13:00.688Z,9.33
2019-01-06T03:16:05.388Z,10.40
2019-01-06T03:18:59.397Z,10.53
2019-01-06T03:22:03.104Z,9.77
2019-01-06T03:25:09.615Z,11.27
2019-01-06T03:28:12.980Z,10.97
2019-01-06T03:30:59.890Z,8.77
2019-01-06T03:33:46.844Z,12.83
2019-01-06T03:36:43.532Z,13.93
2019-01-06T03:39:30.513Z,10.97
2019-01-06T03:42:19.028Z,15.50
2019-01-06T03:45:13.782Z,11.80
2019-01-06T03:48:16.999Z,15.20
2019-01-06T03:51:23.540Z,11.97
2019-01-06T03:54:10.549Z,10.30
2019-01-06T03:57:14.451Z,13.90
2019-01-06T04:00:08.395Z,10.97
2019-01-06T04:03:02.761Z,11.90
2019-01-06T04:05:50.975Z,11.30
2019-01-06T04:08:57.429Z,10.40
2019-01-06T04:11:58.248Z,16.03
2019-01-06T04:14:45.362Z,12.23
2019-01-06T04:17:35.501Z,10.47
2019-01-06T04:20:45.222Z,17.67
2019-01-06T04:23:37.567Z,12.90
2019-01-06T04:26:44.880Z,10.37
2019-01-06T04:29:33.275Z,11.53
2019-01-06T04:32:30.547Z,11.67
2019-01-06T04:35:19.339Z,8.07
2019-01-06T04:38:06.531Z,9.50
2019-01-06T04:41:04.967Z,7.80
2019-01-06T04:43:51.647Z,10.80
2019-01-06T04:46:48.148Z,9.80
2019-01-06T04:49:37.317Z,7.00
2019-01-06T04:52:24.662Z,7.27
2019-01-06T04:55:24.171Z,11.10
2019-01-06T04:58:13.616Z,10.13
2019-01-06T05:01:09.508Z,7.77
2019-01-06T05:04:00.723Z,10.73
2019-01-06T05:06:47.860Z,6.40
2019-01-06T05:09:39.829Z,8.87
2019-01-06T05:12:46.339Z,7.10
2019-01-06T05:15:35.444Z,8.13
2019-01-06T05:18:27.247Z,9.63
2019-01-06T05:21:15.193Z,9.03
2019-01-06T05:24:21.654Z,9.97
2019-01-06T05:27:24.049Z,9.10
2019-01-06T05:30:15.151Z,5.43
2019-01-06T05:33:02.012Z,7.40
2019-01-06T05:35:50.057Z,6.90
2019-01-06T05:38:53.384Z,6.83
2019-01-06T05:41:55.237Z,8.67
2019-01-06T05:44:45.356Z,5.90
2019-01-06T05:47:29.965Z,6.07
2019-01-06T05:50:18.588Z,7.07
2019-01-06T05:53:06.751Z,7.63
2019-01-06T05:55:53.764Z,4.63
2019-01-06T05:58:43.040Z,4.63
2019-01-06T06:01:30.952Z,4.37
2019-01-06T06:04:18.063Z,5.47
2019-01-06T06:07:15.425Z,3.73
2019-01-06T06:10:16.483Z,6.70
2019-01-06T06:13:06.529Z,4.20
2019-01-06T06:15:57.622Z,7.07
2019-01-06T06:19:01.120Z,3.60
2019-01-06T06:22:07.591Z,4.80
2019-01-06T06:24:52.520Z,4.90
2019-01-06T06:27:44.440Z,2.20
2019-01-06T06:30:32.649Z,4.53
2019-01-06T06:33:20.133Z,5.53
2019-01-06T06:36:06.876Z,5.40
2019-01-06T06:38:55.680Z,5.07
2019-01-06T06:41:50.168Z,4.00
2019-01-06T06:44:41.940Z,5.50
2019-01-06T06:47:39.147Z,5.40
2019-01-06T06:50:33.776Z,3.57
2019-01-06T06:53:20.870Z,5.37
2019-01-06T06:56:10.451Z,5.67
2019-01-06T06:59:07.966Z,6.77
2019-01-06T07:02:45.218Z,4.60
2019-01-06T07:05:36.213Z,5.40
2019-01-06T07:08:35.310Z,6.73
2019-01-06T07:11:23.769Z,5.40
2019-01-06T07:14:30.412Z,3.00
2019-01-06T07:17:53.388Z,5.03
2019-01-06T07:20:40.453Z,4.40
2019-01-06T07:23:37.111Z,3.63
2019-01-06T07:26:24.176Z,1.77
2019-01-06T07:29:09.191Z,2.20
2019-01-06T07:32:00.648Z,2.53
2019-01-06T07:34:58.328Z,3.33
2019-01-06T07:38:02.140Z,2.20
2019-01-06T07:40:53.552Z,3.73
2019-01-06T07:43:44.756Z,4.40
2019-01-06T07:46:38.563Z,4.90
2019-01-06T07:49:33.053Z,4.13
2019-01-06T07:52:18.399Z,3.70
2019-01-06T07:55:00.081Z,3.50
2019-01-06T07:57:40.872Z,3.90
2019-01-06T08:00:38.408Z,3.27
2019-01-06T08:03:32.900Z,4.73
2019-01-06T08:06:24.177Z,4.93
2019-01-06T08:09:13.501Z,4.10
2019-01-06T08:12:12.271Z,4.23
2019-01-06T08:14:59.340Z,4.97
2019-01-06T08:17:46.419Z,3.57
2019-01-06T08:20:35.891Z,4.07
2019-01-06T08:23:42.773Z,4.30
2019-01-06T08:26:40.560Z,6.33
2019-01-06T08:29:43.914Z,5.60
2019-01-06T08:32:30.824Z,5.87
2019-01-06T08:35:27.796Z,3.33
2019-01-06T08:38:19.038Z,5.10
2019-01-06T08:41:10.241Z,2.97
2019-01-06T08:43:54.352Z,5.50
2019-01-06T08:46:41.416Z,3.43
2019-01-06T08:49:31.001Z,4.60
2019-01-06T08:52:31.400Z,4.50
2019-01-06T08:55:20.107Z,2.93
2019-01-06T08:58:17.780Z,8.00
2019-01-06T09:01:04.863Z,3.33
2019-01-06T09:04:02.420Z,5.23
2019-01-06T09:06:49.461Z,3.70
2019-01-06T09:09:45.570Z,4.47
2019-01-06T09:12:20.863Z,4.73
2019-01-06T09:15:26.848Z,4.40
2019-01-06T09:18:13.960Z,2.97
2019-01-06T09:21:02.373Z,3.70
2019-01-06T09:23:51.140Z,5.30
2019-01-06T09:26:57.584Z,5.80
2019-01-06T09:29:48.755Z,5.33
2019-01-06T09:32:37.030Z,4.33
2019-01-06T09:35:31.216Z,3.50
2019-01-06T09:38:18.316Z,3.87
2019-01-06T09:41:16.156Z,4.80
2019-01-06T09:44:07.219Z,4.00
2019-01-06T09:47:14.305Z,5.17
2019-01-06T09:50:20.537Z,4.23
2019-01-06T09:53:03.823Z,6.13
2019-01-06T09:55:50.588Z,4.90
2019-01-06T09:58:36.771Z,4.17
2019-01-06T10:01:23.944Z,4.13
2019-01-06T10:04:08.119Z,5.53
2019-01-06T10:06:56.431Z,4.97
2019-01-06T10:09:59.743Z,5.37
2019-01-06T10:13:05.639Z,4.87
2019-01-06T10:15:52.491Z,4.23
2019-01-06T10:18:44.675Z,4.97
2019-01-06T10:21:31.820Z,4.57
2019-01-06T10:24:38.191Z,5.40
2019-01-06T10:27:25.199Z,5.70
2019-01-06T10:30:14.322Z,4.43
2019-01-06T10:33:01.372Z,4.90
2019-01-06T10:35:48.142Z,7.27
2019-01-06T10:38:42.398Z,5.33
2019-01-06T10:41:29.519Z,6.50
2019-01-06T10:44:16.549Z,5.97
2019-01-06T10:47:22.951Z,5.50
2019-01-06T10:50:30.305Z,8.70
2019-01-06T10:53:18.608Z,7.30
2019-01-06T10:56:06.936Z,7.47
2019-01-06T10:59:04.931Z,8.17
2019-01-06T11:01:53.375Z,12.90
2019-01-06T11:04:41.739Z,8.50
2019-01-06T11:07:26.303Z,9.27
2019-01-06T11:10:13.263Z,7.30
2019-01-06T11:13:04.896Z,7.87
2019-01-06T11:15:51.432Z,7.27
2019-01-06T11:18:38.362Z,7.70
2019-01-06T11:21:19.739Z,8.50
2019-01-06T11:24:06.900Z,8.07
2019-01-06T11:26:57.236Z,9.50
2019-01-06T11:29:48.223Z,9.53
2019-01-06T11:32:54.620Z,7.77
2019-01-06T11:35:41.825Z,8.63
2019-01-06T11:38:48.567Z,7.10
2019-01-06T11:41:28.880Z,7.07
2019-01-06T11:44:16.273Z,7.57
2019-01-06T11:47:17.095Z,7.47
2019-01-06T11:50:20.267Z,8.63
2019-01-06T11:53:07.258Z,7.23
2019-01-06T11:55:57.928Z,7.60
2019-01-06T11:59:01.252Z,7.73
2019-01-06T12:01:57.127Z,7.60
2019-01-06T12:04:43.816Z,6.90
2019-01-06T12:07:35.647Z,8.30
2019-01-06T12:10:22.951Z,6.27
2019-01-06T12:13:11.231Z,8.10
2019-01-06T12:15:57.988Z,7.40
2019-01-06T12:18:50.532Z,8.87
2019-01-06T12:21:41.072Z,8.83
2019-01-06T12:24:24.520Z,9.40
2019-01-06T12:27:22.119Z,9.63
2019-01-06T12:30:09.143Z,9.33
2019-01-06T12:32:57.411Z,11.03
2019-01-06T12:35:47.179Z,11.27
2019-01-06T12:38:34.151Z,10.20
2019-01-06T12:41:21.339Z,9.90
2019-01-06T12:44:08.467Z,10.37
2019-01-06T12:47:02.921Z,9.47
2019-01-06T12:49:50.044Z,9.57
2019-01-06T12:52:36.659Z,9.30
2019-01-06T12:55:24.976Z,10.20
2019-01-06T12:58:16.279Z,8.07
2019-01-06T13:01:04.840Z,8.97
2019-01-06T13:03:55.923Z,8.17
2019-01-06T13:06:56.544Z,9.63
2019-01-06T13:09:43.331Z,7.10
2019-01-06T13:12:37.851Z,8.47
2019-01-06T13:15:29.543Z,7.77
2019-01-06T13:18:16.423Z,9.17
2019-01-06T13:21:07.603Z,11.77
2019-01-06T13:24:05.059Z,7.67
2019-01-06T13:26:53.940Z,7.67
2019-01-06T13:29:39.796Z,7.10
2019-01-06T13:32:24.303Z,6.40
2019-01-06T13:35:11.647Z,7.70
2019-01-06T13:38:17.776Z,5.97
2019-01-06T13:41:11.315Z,7.47
2019-01-06T13:44:01.592Z,7.33
2019-01-06T13:46:50.043Z,7.73
2019-01-06T13:49:47.403Z,8.10
2019-01-06T13:52:33.355Z,6.33
2019-01-06T13:55:21.669Z,5.27
2019-01-06T13:58:09.957Z,6.60
2019-01-06T14:00:57.062Z,7.00
2019-01-06T14:03:47.557Z,6.20
2019-01-06T14:06:41.475Z,6.57
2019-01-06T14:09:30.104Z,7.77
2019-01-06T14:12:18.108Z,5.77
2019-01-06T14:15:06.190Z,6.60
2019-01-06T14:17:54.484Z,7.37
2019-01-06T14:20:41.325Z,6.70
2019-01-06T14:23:31.563Z,5.73
2019-01-06T14:26:18.317Z,5.87
2019-01-06T14:29:06.603Z,5.57
2019-01-06T14:31:53.268Z,6.23
2019-01-06T14:34:43.259Z,5.83
2019-01-06T14:37:37.372Z,5.70
2019-01-06T14:40:28.512Z,6.67
2019-01-06T14:43:22.427Z,7.23
2019-01-06T14:46:10.726Z,7.77
2019-01-06T14:48:59.756Z,9.03
2019-01-06T14:51:48.783Z,6.47
2019-01-06T14:54:36.033Z,5.97
2019-01-06T14:57:42.468Z,6.97
2019-01-06T15:03:38.263Z,7.73
2019-01-06T15:06:29.775Z,7.17
2019-01-06T15:09:19.890Z,6.90
2019-01-06T15:12:20.954Z,7.90
2019-01-06T15:15:07.847Z,7.30
2019-01-06T15:17:54.957Z,6.50
2019-01-06T15:20:51.537Z,6.60
2019-01-06T15:23:51.860Z,8.27
2019-01-06T15:26:41.984Z,6.23
2019-01-06T15:29:41.914Z,8.23
2019-01-06T15:32:30.194Z,7.43
2019-01-06T15:35:27.492Z,9.07
2019-01-06T15:38:15.788Z,8.70
2019-01-06T15:41:02.600Z,6.63
2019-01-06T15:44:09.460Z,6.17
2019-01-06T15:47:03.831Z,7.80
2019-01-06T15:49:50.953Z,6.13
2019-01-06T15:52:38.000Z,7.73
2019-01-06T15:55:32.095Z,7.03
2019-01-06T15:58:22.567Z,6.87
2019-01-06T16:01:15.823Z,7.33
2019-01-06T16:04:05.811Z,7.27
2019-01-06T16:07:06.147Z,7.27
2019-01-06T16:09:53.147Z,7.83
2019-01-06T16:12:43.543Z,8.50
2019-01-06T16:15:30.506Z,9.73
2019-01-06T16:18:27.567Z,11.07
2019-01-06T16:21:18.516Z,8.60
2019-01-06T16:24:12.703Z,8.33
2019-01-06T16:27:19.167Z,7.67
2019-01-06T16:30:06.033Z,7.57
2019-01-06T16:32:57.120Z,7.97
2019-01-06T16:35:45.423Z,8.17
2019-01-06T16:38:32.609Z,9.27
2019-01-06T16:41:26.216Z,9.27
2019-01-06T16:44:15.990Z,8.53
2019-01-06T16:47:05.068Z,7.20
2019-01-06T16:50:11.700Z,7.90
2019-01-06T16:52:58.579Z,7.60
2019-01-06T16:55:45.317Z,8.20
2019-01-06T16:58:36.540Z,6.77
2019-01-06T17:01:33.811Z,6.70
2019-01-06T17:04:22.103Z,6.87
2019-01-06T17:07:07.890Z,7.93
2019-01-06T17:09:54.611Z,6.43
2019-01-06T17:12:57.751Z,6.47
2019-01-06T17:15:58.541Z,5.70
2019-01-06T17:18:46.976Z,5.80
2019-01-06T17:21:50.718Z,6.00
2019-01-06T17:24:37.437Z,6.20
2019-01-06T17:27:24.298Z,5.70
2019-01-06T17:30:14.239Z,6.20
2019-01-06T17:33:07.731Z,5.67
2019-01-06T17:35:57.704Z,6.33
2019-01-06T17:38:44.583Z,5.53
2019-01-06T17:41:35.687Z,5.47
2019-01-06T17:44:22.735Z,5.27
2019-01-06T17:47:20.084Z,5.70
2019-01-06T17:50:07.103Z,5.13
2019-01-06T17:52:53.921Z,6.30
2019-01-06T17:55:47.684Z,5.03
2019-01-06T17:58:34.881Z,6.40
2019-01-06T18:01:35.752Z,5.17
2019-01-06T18:04:24.355Z,6.07
2019-01-06T18:07:26.020Z,5.63
2019-01-06T18:10:21.564Z,7.00
2019-01-06T18:13:02.860Z,6.13
2019-01-06T18:15:49.577Z,5.60
2019-01-06T18:18:36.483Z,8.13
2019-01-06T18:21:20.416Z,6.17
2019-01-06T18:24:07.280Z,7.00
2019-01-06T18:27:01.541Z,6.77
2019-01-06T18:29:55.703Z,7.33
2019-01-06T18:32:44.068Z,8.77
2019-01-06T18:35:31.055Z,6.27
2019-01-06T18:38:26.912Z,6.17
2019-01-06T18:41:11.023Z,8.60
2019-01-06T18:43:57.996Z,6.50
2019-01-06T18:46:46.311Z,7.03
2019-01-06T18:49:31.675Z,7.13
2019-01-06T18:52:19.408Z,6.70
2019-01-06T18:55:00.259Z,7.27
2019-01-06T18:57:50.467Z,7.37
2019-01-06T19:00:33.992Z,6.10
2019-01-06T19:06:13.617Z,6.40
2019-01-06T19:09:04.816Z,6.57
2019-01-06T19:11:51.851Z,6.37
2019-01-06T19:14:38.765Z,7.27
2019-01-06T19:17:40.553Z,7.77
2019-01-06T19:20:20.128Z,6.83
2019-01-06T19:23:07.079Z,6.13
2019-01-06T19:26:04.272Z,7.27
2019-01-06T19:28:58.871Z,6.57
2019-01-06T19:31:45.626Z,8.07
2019-01-06T19:34:32.988Z,5.73
2019-01-06T19:37:33.239Z,7.33
2019-01-06T19:40:20.380Z,7.43
2019-01-06T19:43:29.391Z,6.90
2019-01-06T19:46:29.500Z,6.97
2019-01-06T19:49:20.701Z,11.07
2019-01-06T19:52:12.805Z,6.70
2019-01-06T19:54:56.440Z,7.53
2019-01-06T19:57:59.867Z,7.20
2019-01-06T20:00:50.697Z,7.53
2019-01-06T20:03:53.911Z,8.07
2019-01-06T20:06:40.999Z,7.17
2019-01-06T20:09:32.307Z,8.37
2019-01-06T20:12:26.378Z,7.20
2019-01-06T20:15:21.292Z,7.93
2019-01-06T20:18:18.413Z,10.03
2019-01-06T20:21:12.823Z,8.67
2019-01-06T20:24:13.313Z,9.40
2019-01-06T20:27:04.216Z,8.40
2019-01-06T20:30:04.638Z,9.60
2019-01-06T20:32:53.020Z,8.43
2019-01-06T20:35:39.924Z,9.07
2019-01-06T20:38:24.932Z,8.97
2019-01-06T20:41:13.581Z,8.70
2019-01-06T20:44:04.963Z,8.50
2019-01-06T20:46:54.356Z,9.10
2019-01-06T20:49:41.588Z,8.27
2019-01-06T20:52:28.600Z,9.67
2019-01-06T20:55:23.062Z,7.67
2019-01-06T20:58:23.361Z,9.90
2019-01-06T21:01:10.337Z,8.67
2019-01-06T21:03:57.297Z,9.10
2019-01-06T21:06:44.329Z,8.43
2019-01-06T21:09:23.185Z,8.07
2019-01-06T21:12:11.501Z,6.73
2019-01-06T21:14:58.413Z,9.07
2019-01-06T21:17:44.249Z,8.70
2019-01-06T21:20:33.920Z,8.77
2019-01-06T21:23:28.299Z,7.07
2019-01-06T21:29:25.815Z,8.13
2019-01-06T21:32:15.853Z,9.00
2019-01-06T21:35:02.735Z,7.97
2019-01-06T21:38:00.599Z,7.10
2019-01-06T21:40:47.567Z,7.83
2019-01-06T21:43:35.922Z,8.67
2019-01-06T21:46:25.879Z,7.33
2019-01-06T21:49:14.215Z,7.70
2019-01-06T21:52:16.567Z,8.83
2019-01-06T21:55:13.967Z,8.43
2019-01-06T21:57:56.024Z,7.13
2019-01-06T22:00:53.128Z,9.37
2019-01-06T22:03:39.819Z,9.63
2019-01-06T22:06:26.639Z,9.07
2019-01-06T22:09:20.884Z,8.27
2019-01-06T22:12:07.754Z,7.90
2019-01-06T22:15:08.063Z,7.00
2019-01-06T22:18:08.579Z,8.13
2019-01-06T22:21:11.955Z,9.23
2019-01-06T22:24:09.283Z,6.83
2019-01-06T22:27:03.706Z,10.10
2019-01-06T22:30:10.192Z,7.77
2019-01-06T22:32:57.296Z,9.57
2019-01-06T22:35:51.435Z,7.37
2019-01-06T22:38:38.520Z,8.90
2019-01-06T22:41:25.271Z,8.10
2019-01-06T22:44:28.679Z,5.57
2019-01-06T22:47:19.647Z,9.03
2019-01-06T22:50:10.987Z,7.53
2019-01-06T22:53:08.342Z,7.47
2019-01-06T22:56:03.251Z,8.37
2019-01-06T22:58:50.249Z,7.50
2019-01-06T23:01:37.366Z,8.00
2019-01-06T23:04:28.636Z,8.93
2019-01-06T23:07:23.803Z,9.17
2019-01-06T23:10:09.683Z,7.23
2019-01-06T23:12:56.635Z,7.77
2019-01-06T23:15:43.652Z,6.63
2019-01-06T23:18:31.900Z,5.63
2019-01-06T23:21:28.067Z,6.80
2019-01-06T23:24:14.983Z,6.63
2019-01-06T23:27:09.267Z,7.73
2019-01-06T23:30:03.581Z,7.63
2019-01-06T23:32:47.784Z,6.63
2019-01-06T23:35:34.679Z,7.07
2019-01-06T23:38:22.972Z,6.40
2019-01-06T23:41:10.169Z,8.63
2019-01-06T23:44:04.119Z,5.60
2019-01-06T23:46:52.399Z,5.70
2019-01-06T23:49:39.271Z,6.00
2019-01-06T23:52:26.244Z,6.90
2019-01-06T23:55:13.592Z,5.93
2019-01-06T23:58:00.553Z,6.23
